Time;durP1;ratioP1;P1;durP2;ratioP2;P2;SDS_P1;SDS_P2;PMS_P1;PMS_P2;Temp;Humidity;BMP_temperature;BMP_pressure;BME280_temperature;BME280_humidity;BME280_pressure;Samples;Min_cycle;Max_cycle;Signal;HPM_P1;HPM_P2
2021/03/22 00:01:56;;;;;;;2.42;1.55;;;3.90;99.90;;;;;;10354934;28;20046;-49
2021/03/22 00:07:17;;;;;;;1.75;0.70;;;4.00;99.90;;;;;;10352130;28;20041;-49
2021/03/22 00:12:38;;;;;;;5.40;1.10;;;3.90;99.90;;;;;;10360014;28;20057;-49
2021/03/22 00:18:00;;;;;;;13.65;1.33;;;3.80;99.90;;;;;;10366437;28;20041;-49
2021/03/22 00:23:21;;;;;;;3.53;0.60;;;3.90;99.90;;;;;;10361291;28;20409;-49
2021/03/22 00:28:42;;;;;;;8.63;1.83;;;3.90;99.90;;;;;;10354891;28;20091;-49
2021/03/22 00:34:03;;;;;;;4.57;1.17;;;3.80;99.90;;;;;;10369795;28;20041;-49
2021/03/22 00:39:24;;;;;;;21.23;1.58;;;3.90;99.90;;;;;;10366825;28;20183;-49
2021/03/22 00:44:45;;;;;;;4.43;1.50;;;3.90;99.90;;;;;;10369406;28;20111;-49
2021/03/22 00:50:09;;;;;;;6.28;1.15;;;3.90;99.90;;;;;;10359414;28;20102;-49
2021/03/22 00:55:31;;;;;;;4.25;1.20;;;3.80;99.90;;;;;;10364897;28;20578;-49
2021/03/22 01:00:54;;;;;;;4.32;0.45;;;3.80;99.90;;;;;;10357743;28;20037;-49
2021/03/22 01:06:15;;;;;;;7.22;1.73;;;3.80;99.90;;;;;;10368679;28;20041;-49
2021/03/22 01:11:36;;;;;;;6.13;1.70;;;3.80;99.90;;;;;;10372758;28;20064;-49
2021/03/22 01:16:58;;;;;;;8.55;1.13;;;3.80;99.90;;;;;;10358918;28;20034;-49
2021/03/22 01:22:19;;;;;;;7.25;1.35;;;3.80;99.90;;;;;;10367847;28;20062;-49
2021/03/22 01:27:42;;;;;;;4.45;1.25;;;3.90;99.90;;;;;;10353180;28;20087;-49
2021/03/22 01:33:05;;;;;;;4.78;2.17;;;4.00;99.90;;;;;;10363400;28;20060;-49
2021/03/22 01:38:27;;;;;;;4.15;0.93;;;4.10;99.90;;;;;;10367531;28;20064;-49
2021/03/22 01:44:22;;;;;;;7.32;0.88;;;4.10;99.90;;;;;;10367857;28;20100;-49
2021/03/22 01:50:01;;;;;;;3.80;1.67;;;4.20;99.90;;;;;;10369552;28;20045;-49
2021/03/22 01:55:24;;;;;;;1.55;0.50;;;4.20;99.90;;;;;;10360025;28;20072;-49
2021/03/22 02:00:45;;;;;;;6.45;0.93;;;4.30;99.90;;;;;;10373301;28;20602;-49
2021/03/22 02:06:06;;;;;;;6.72;1.60;;;4.30;99.90;;;;;;10370021;28;20049;-49
2021/03/22 02:11:30;;;;;;;13.15;1.33;;;4.40;99.90;;;;;;10373197;28;20116;-49
2021/03/22 02:17:18;;;;;;;7.13;1.33;;;4.40;99.90;;;;;;10363997;28;20034;-49
2021/03/22 02:22:58;;;;;;;11.18;2.10;;;4.50;99.90;;;;;;10370268;28;20048;-49
2021/03/22 02:28:54;;;;;;;5.35;1.55;;;4.70;99.90;;;;;;10361157;28;20054;-49
2021/03/22 02:34:39;;;;;;;4.82;1.60;;;4.70;99.90;;;;;;10360886;28;20053;-49
2021/03/22 02:40:29;;;;;;;4.28;1.48;;;4.80;99.90;;;;;;10372887;28;21615;-49
2021/03/22 02:45:55;;;;;;;8.38;1.85;;;4.90;99.90;;;;;;10361123;28;20064;-49
2021/03/22 02:51:57;;;;;;;3.25;1.90;;;4.90;99.90;;;;;;10356971;28;20484;-49
2021/03/22 02:57:34;;;;;;;6.95;1.38;;;4.90;99.90;;;;;;10358323;28;20186;-49
2021/03/22 03:03:00;;;;;;;7.30;1.92;;;4.90;99.90;;;;;;10368810;28;20605;-49
2021/03/22 03:08:25;;;;;;;4.47;1.48;;;4.90;99.90;;;;;;10354721;28;20048;-49
2021/03/22 03:13:46;;;;;;;4.97;1.70;;;5.00;99.90;;;;;;10374857;28;20416;-49
2021/03/22 03:19:07;;;;;;;6.50;1.52;;;5.10;99.90;;;;;;10374864;28;20041;-49
2021/03/22 03:24:28;;;;;;;7.35;0.77;;;5.10;99.90;;;;;;10343332;28;20086;-49
2021/03/22 03:29:49;;;;;;;8.43;1.38;;;5.10;99.90;;;;;;10371275;28;20681;-49
2021/03/22 03:35:14;;;;;;;5.13;1.20;;;5.20;99.90;;;;;;10371963;28;20065;-49
2021/03/22 03:40:41;;;;;;;7.18;1.67;;;5.20;99.90;;;;;;10365603;28;20037;-49
2021/03/22 03:46:02;;;;;;;18.45;3.42;;;5.20;99.90;;;;;;10372005;28;20080;-49
2021/03/22 03:51:23;;;;;;;8.48;1.70;;;5.20;99.90;;;;;;10359733;28;20041;-49
2021/03/22 03:56:44;;;;;;;2.70;1.20;;;5.20;99.90;;;;;;10367463;28;20081;-49
2021/03/22 04:02:05;;;;;;;5.85;0.80;;;5.20;99.90;;;;;;10368925;28;20124;-49
2021/03/22 04:07:26;;;;;;;4.85;0.88;;;5.20;99.90;;;;;;10349264;28;20091;-49
2021/03/22 04:12:47;;;;;;;3.13;1.63;;;5.20;99.90;;;;;;10329930;28;20050;-49
2021/03/22 04:18:08;;;;;;;8.60;2.47;;;5.30;99.90;;;;;;10331801;28;20042;-49
2021/03/22 04:23:29;;;;;;;6.68;1.20;;;5.30;99.90;;;;;;10367891;28;20060;-49
2021/03/22 04:28:50;;;;;;;9.00;1.10;;;5.30;99.90;;;;;;10373607;28;20061;-49
2021/03/22 04:34:12;;;;;;;2.05;0.63;;;5.30;99.90;;;;;;10350858;28;20038;-49
2021/03/22 04:39:34;;;;;;;3.55;0.55;;;5.40;99.90;;;;;;10370950;28;20048;-49
2021/03/22 04:44:55;;;;;;;1.35;0.70;;;5.30;99.90;;;;;;10363739;28;20564;-49
2021/03/22 04:50:18;;;;;;;1.90;0.68;;;5.30;99.90;;;;;;10367651;28;20132;-49
2021/03/22 04:55:39;;;;;;;11.50;1.40;;;5.30;99.90;;;;;;10355087;28;20049;-49
2021/03/22 05:01:01;;;;;;;6.68;1.83;;;5.30;99.90;;;;;;10357948;28;20041;-49
2021/03/22 05:06:22;;;;;;;3.33;0.93;;;5.30;99.90;;;;;;10367625;28;20040;-49
2021/03/22 05:11:43;;;;;;;2.47;0.65;;;5.30;99.90;;;;;;10370939;28;20053;-49
2021/03/22 05:17:04;;;;;;;0.85;0.45;;;5.30;99.90;;;;;;10361335;28;20029;-49
2021/03/22 05:22:25;;;;;;;2.30;0.80;;;5.30;99.90;;;;;;10367294;28;20490;-49
2021/03/22 05:27:46;;;;;;;2.72;1.02;;;5.30;99.90;;;;;;10371556;28;20041;-49
2021/03/22 05:33:12;;;;;;;3.58;0.88;;;5.40;99.90;;;;;;10363278;28;20325;-49
2021/03/22 05:38:32;;;;;;;3.92;0.90;;;5.40;99.90;;;;;;10371426;28;20037;-49
2021/03/22 05:44:19;;;;;;;1.23;0.70;;;5.40;99.90;;;;;;10376227;28;20091;-49
2021/03/22 05:50:14;;;;;;;1.92;0.73;;;5.40;99.90;;;;;;10363447;28;20160;-49
2021/03/22 05:55:51;;;;;;;4.15;0.65;;;5.40;99.90;;;;;;10357765;28;20048;-49
2021/03/22 06:01:40;;;;;;;1.55;0.45;;;5.40;99.90;;;;;;10361021;28;20030;-49
2021/03/22 06:07:04;;;;;;;5.38;0.82;;;5.40;99.90;;;;;;10369895;28;20038;-49
2021/03/22 06:12:28;;;;;;;13.25;0.80;;;5.40;99.90;;;;;;10377275;28;20029;-49
2021/03/22 06:17:51;;;;;;;4.20;0.68;;;5.50;99.90;;;;;;10373096;28;20117;-49
2021/03/22 06:23:31;;;;;;;8.30;0.82;;;5.50;99.90;;;;;;10367358;28;20054;-49
2021/03/22 06:28:59;;;;;;;1.27;0.52;;;5.50;99.90;;;;;;10367961;28;20446;-49
2021/03/22 06:34:44;;;;;;;1.90;0.55;;;5.50;99.90;;;;;;10358632;28;20037;-49
2021/03/22 06:40:16;;;;;;;6.35;2.38;;;5.60;99.90;;;;;;10368313;28;20141;-49
2021/03/22 06:46:06;;;;;;;9.20;1.90;;;5.60;99.90;;;;;;10367876;28;20044;-49
2021/03/22 06:51:27;;;;;;;5.43;1.05;;;5.70;99.90;;;;;;10367785;28;20042;-49
2021/03/22 06:57:21;;;;;;;6.45;1.17;;;5.70;99.90;;;;;;10363234;28;20041;-49
2021/03/22 07:02:58;;;;;;;4.35;1.13;;;5.80;99.90;;;;;;10347364;28;20060;-49
2021/03/22 07:08:38;;;;;;;1.83;0.47;;;5.80;99.90;;;;;;10371877;28;20040;-51
2021/03/22 07:14:03;;;;;;;8.30;1.50;;;6.00;99.90;;;;;;10371169;28;20041;-49
2021/03/22 07:19:24;;;;;;;1.58;0.57;;;6.10;99.90;;;;;;10366333;28;20038;-49
2021/03/22 07:25:01;;;;;;;3.45;0.80;;;6.10;99.90;;;;;;10371225;28;20057;-49
2021/03/22 07:30:37;;;;;;;3.35;0.30;;;6.20;99.90;;;;;;10368951;28;20091;-49
2021/03/22 07:36:14;;;;;;;1.35;0.45;;;6.20;99.90;;;;;;10375276;28;20464;-49
2021/03/22 07:41:47;;;;;;;0.47;0.20;;;6.30;99.90;;;;;;10364287;28;20049;-49
2021/03/22 07:47:48;;;;;;;2.60;0.50;;;6.30;99.90;;;;;;10349104;28;20095;-49
2021/03/22 07:53:52;;;;;;;0.98;0.20;;;6.40;99.90;;;;;;10368026;28;20042;-49
2021/03/22 07:59:33;;;;;;;1.33;0.63;;;6.40;99.90;;;;;;10352561;28;20037;-49
2021/03/22 08:05:10;;;;;;;0.77;0.10;;;6.40;99.90;;;;;;10363137;28;20065;-49
2021/03/22 08:10:42;;;;;;;0.88;0.25;;;6.50;99.90;;;;;;10349879;28;20037;-49
2021/03/22 08:16:41;;;;;;;0.03;0.00;;;6.50;99.90;;;;;;10364894;28;20099;-49
2021/03/22 08:22:08;;;;;;;0.30;0.10;;;6.60;99.90;;;;;;10362179;28;20053;-49
2021/03/22 08:27:33;;;;;;;0.25;0.10;;;6.80;99.90;;;;;;10363837;28;20033;-49
2021/03/22 08:33:14;;;;;;;1.23;0.20;;;6.80;99.90;;;;;;10364329;28;20499;-49
2021/03/22 08:39:01;;;;;;;0.40;0.10;;;6.70;99.90;;;;;;10337837;28;20042;-49
2021/03/22 08:44:29;;;;;;;0.73;0.40;;;6.90;99.90;;;;;;10357313;28;20407;-49
2021/03/22 08:49:59;;;;;;;0.95;0.32;;;6.90;99.90;;;;;;10353204;28;20034;-49
2021/03/22 08:55:22;;;;;;;0.95;0.17;;;6.90;99.90;;;;;;10357034;28;20052;-50
2021/03/22 09:00:45;;;;;;;1.08;0.20;;;7.10;99.90;;;;;;10362573;28;20045;-49
2021/03/22 09:06:11;;;;;;;0.93;0.28;;;7.40;99.90;;;;;;10360098;28;20034;-49
2021/03/22 09:11:39;;;;;;;0.63;0.45;;;7.60;99.90;;;;;;10363509;28;20034;-49
2021/03/22 09:17:02;;;;;;;0.73;0.40;;;7.60;99.90;;;;;;10362956;28;20036;-49
2021/03/22 09:22:26;;;;;;;3.50;1.45;;;7.70;99.90;;;;;;10363504;28;20053;-49
2021/03/22 09:27:47;;;;;;;1.52;0.38;;;7.60;99.90;;;;;;10365921;28;20610;-49
2021/03/22 09:33:08;;;;;;;1.80;0.50;;;7.70;99.90;;;;;;10344644;28;20041;-49
2021/03/22 09:38:40;;;;;;;1.02;0.28;;;7.50;99.90;;;;;;10359981;28;20483;-49
2021/03/22 09:44:11;;;;;;;0.65;0.20;;;7.40;99.90;;;;;;10362449;28;20040;-49
2021/03/22 09:50:01;;;;;;;1.25;0.43;;;7.30;99.90;;;;;;10358208;28;20042;-49
2021/03/22 09:55:25;;;;;;;1.80;0.73;;;7.10;99.90;;;;;;10360114;28;20064;-49
2021/03/22 10:00:55;;;;;;;2.17;0.45;;;7.10;99.90;;;;;;10364496;28;20046;-49
2021/03/22 10:06:41;;;;;;;1.20;0.40;;;7.10;99.90;;;;;;10350368;28;20219;-49
2021/03/22 10:12:28;;;;;;;2.28;0.88;;;7.10;99.90;;;;;;10372239;28;20200;-49
2021/03/22 10:18:22;;;;;;;0.40;0.20;;;7.30;99.90;;;;;;10373616;28;20184;-49
2021/03/22 10:24:28;;;;;;;1.00;0.25;;;7.60;99.90;;;;;;10374014;28;20056;-49
2021/03/22 10:29:49;;;;;;;0.30;0.10;;;8.30;99.90;;;;;;10357313;28;20045;-49
2021/03/22 10:35:16;;;;;;;1.70;0.10;;;8.70;99.90;;;;;;10348639;28;21508;-49
2021/03/22 10:40:39;;;;;;;2.47;1.48;;;9.10;99.90;;;;;;10332233;28;20042;-49
2021/03/22 10:46:16;;;;;;;0.85;0.10;;;9.20;99.90;;;;;;10330103;28;20092;-49
2021/03/22 10:51:41;;;;;;;1.08;0.40;;;8.80;99.90;;;;;;10330547;28;20445;-49
2021/03/22 10:57:03;;;;;;;0.50;0.10;;;8.50;99.90;;;;;;10330772;28;20040;-49
2021/03/22 11:02:45;;;;;;;0.43;0.15;;;8.30;99.90;;;;;;10325526;28;20133;-49
2021/03/22 11:08:29;;;;;;;0.32;0.10;;;8.10;99.90;;;;;;10331610;28;20440;-49
2021/03/22 11:13:52;;;;;;;0.10;0.00;;;8.10;99.90;;;;;;10355702;28;20044;-49
2021/03/22 11:19:24;;;;;;;0.93;0.55;;;8.00;99.90;;;;;;10377930;28;20499;-49
2021/03/22 11:24:45;;;;;;;0.80;0.50;;;8.00;99.90;;;;;;10375392;28;20519;-49
2021/03/22 11:30:11;;;;;;;1.58;0.70;;;8.20;99.90;;;;;;10374265;28;20045;-49
2021/03/22 11:35:33;;;;;;;1.33;0.38;;;8.20;99.90;;;;;;10352517;28;20076;-49
2021/03/22 11:40:54;;;;;;;1.08;0.47;;;8.40;99.90;;;;;;10353146;28;20157;-49
2021/03/22 11:46:23;;;;;;;0.63;0.17;;;8.50;99.90;;;;;;10325182;28;20084;-49
2021/03/22 11:51:51;;;;;;;0.90;0.20;;;8.90;99.90;;;;;;10337957;28;20432;-49
2021/03/22 11:57:18;;;;;;;0.20;0.10;;;9.20;99.90;;;;;;10367180;28;20104;-49
2021/03/22 12:03:01;;;;;;;0.52;0.20;;;9.30;99.90;;;;;;10368426;28;20042;-49
2021/03/22 12:08:32;;;;;;;0.73;0.13;;;9.30;99.90;;;;;;10368469;28;20073;-49
2021/03/22 12:13:56;;;;;;;0.77;0.20;;;9.40;99.90;;;;;;10365102;28;20049;-49
2021/03/22 12:19:44;;;;;;;0.55;0.10;;;9.30;99.90;;;;;;10364346;28;20091;-49
2021/03/22 12:25:05;;;;;;;0.45;0.20;;;9.10;99.90;;;;;;10364542;28;20061;-49
2021/03/22 12:30:27;;;;;;;0.90;0.20;;;8.90;99.90;;;;;;10353082;28;20099;-49
2021/03/22 12:35:48;;;;;;;3.95;1.30;;;8.70;99.90;;;;;;10364081;28;20041;-49
2021/03/22 12:41:15;;;;;;;2.47;0.70;;;8.50;99.90;;;;;;10363522;28;20103;-49
2021/03/22 12:46:36;;;;;;;1.20;0.38;;;8.50;99.90;;;;;;10333930;28;20037;-49
2021/03/22 12:51:57;;;;;;;1.00;0.30;;;8.40;99.90;;;;;;10322342;28;20418;-49
2021/03/22 12:57:21;;;;;;;0.73;0.22;;;8.50;99.90;;;;;;10327835;28;20042;-49
2021/03/22 13:02:45;;;;;;;0.82;0.32;;;8.60;99.90;;;;;;10337129;28;20052;-49
2021/03/22 13:08:06;;;;;;;0.80;0.47;;;8.60;99.90;;;;;;10332210;28;20164;-49
2021/03/22 13:13:27;;;;;;;0.30;0.03;;;8.60;99.90;;;;;;10345312;28;20041;-49
2021/03/22 13:18:48;;;;;;;0.80;0.30;;;8.60;99.90;;;;;;10336672;28;20551;-49
2021/03/22 13:24:15;;;;;;;2.05;0.40;;;8.70;99.90;;;;;;10336676;28;20080;-49
2021/03/22 13:29:36;;;;;;;1.70;0.20;;;8.70;99.90;;;;;;10325669;28;20072;-49
2021/03/22 13:34:57;;;;;;;0.10;0.03;;;8.80;99.90;;;;;;10344131;28;20838;-49
2021/03/22 13:40:19;;;;;;;0.47;0.13;;;8.80;99.90;;;;;;10353170;28;20108;-49
2021/03/22 13:45:41;;;;;;;0.52;0.17;;;8.80;99.90;;;;;;10353438;28;20426;-50
2021/03/22 13:51:02;;;;;;;0.30;0.08;;;8.90;99.90;;;;;;10354816;28;20042;-49
2021/03/22 13:56:23;;;;;;;3.65;0.43;;;8.90;99.90;;;;;;10349121;28;21040;-49
2021/03/22 14:01:45;;;;;;;0.25;0.17;;;8.90;99.90;;;;;;10354062;28;20048;-49
2021/03/22 14:07:06;;;;;;;2.38;0.08;;;8.80;99.90;;;;;;10346207;28;20033;-49
2021/03/22 14:12:27;;;;;;;0.20;0.05;;;8.70;99.90;;;;;;10354688;28;20044;-49
2021/03/22 14:17:48;;;;;;;0.10;0.05;;;8.60;99.90;;;;;;10356270;28;20091;-49
2021/03/22 14:23:12;;;;;;;0.20;0.00;;;8.60;99.90;;;;;;10359044;28;20375;-49
2021/03/22 14:28:33;;;;;;;0.85;0.10;;;8.80;99.90;;;;;;10354932;28;20353;-49
2021/03/22 14:33:59;;;;;;;8.68;1.40;;;8.60;99.90;;;;;;10349856;28;20464;-49
2021/03/22 14:39:21;;;;;;;5.22;0.15;;;8.60;99.90;;;;;;10354795;28;20087;-49
2021/03/22 14:44:42;;;;;;;0.32;0.00;;;8.80;99.90;;;;;;10355495;28;20053;-49
2021/03/22 14:50:04;;;;;;;0.10;0.00;;;8.70;99.90;;;;;;10355132;28;20133;-49
2021/03/22 14:55:29;;;;;;;0.10;0.10;;;8.60;99.90;;;;;;10346845;28;20030;-49
2021/03/22 15:00:50;;;;;;;3.50;0.10;;;8.60;99.90;;;;;;10361418;28;20029;-49
2021/03/22 15:06:11;;;;;;;0.47;0.20;;;8.70;99.90;;;;;;10335147;28;21183;-49
2021/03/22 15:11:33;;;;;;;0.55;0.10;;;8.70;99.90;;;;;;10347219;28;20033;-49
2021/03/22 15:16:54;;;;;;;0.20;0.00;;;8.60;99.90;;;;;;10364239;28;20488;-49
2021/03/22 15:22:15;;;;;;;0.22;0.05;;;8.50;99.90;;;;;;10355416;28;20110;-49
2021/03/22 15:27:39;;;;;;;0.47;0.20;;;8.60;99.90;;;;;;10330385;28;20048;-49
2021/03/22 15:33:00;;;;;;;0.22;0.10;;;8.60;99.90;;;;;;10347354;28;20561;-49
2021/03/22 15:38:21;;;;;;;4.45;0.40;;;8.60;99.90;;;;;;10355649;28;20036;-49
2021/03/22 15:43:42;;;;;;;0.22;0.08;;;8.60;99.90;;;;;;10354646;28;20341;-49
2021/03/22 15:49:03;;;;;;;0.50;0.38;;;8.80;99.90;;;;;;10350086;28;20524;-49
2021/03/22 15:54:24;;;;;;;0.35;0.10;;;8.90;99.90;;;;;;10350720;28;21431;-49
2021/03/22 15:59:45;;;;;;;0.52;0.13;;;8.90;99.90;;;;;;10348895;28;20143;-49
2021/03/22 16:05:06;;;;;;;1.77;0.38;;;8.90;99.90;;;;;;10342855;28;20050;-49
2021/03/22 16:10:28;;;;;;;0.85;0.35;;;9.00;99.90;;;;;;10322124;28;20037;-49
2021/03/22 16:15:50;;;;;;;0.68;0.15;;;9.10;99.90;;;;;;10345918;28;20065;-49
2021/03/22 16:21:12;;;;;;;4.03;0.35;;;9.00;99.90;;;;;;10348577;28;20123;-49
2021/03/22 16:26:33;;;;;;;1.52;0.60;;;8.90;99.90;;;;;;10345338;28;20037;-49
2021/03/22 16:31:54;;;;;;;0.70;0.13;;;8.90;99.90;;;;;;10348212;28;20313;-49
2021/03/22 16:37:15;;;;;;;0.82;0.30;;;8.90;99.90;;;;;;10329326;28;20113;-49
2021/03/22 16:42:36;;;;;;;2.30;0.20;;;8.90;99.90;;;;;;10342291;28;20049;-49
2021/03/22 16:47:57;;;;;;;0.65;0.20;;;8.70;99.90;;;;;;10336024;28;20045;-49
2021/03/22 16:53:18;;;;;;;0.20;0.08;;;8.60;99.90;;;;;;10331774;28;20427;-49
2021/03/22 16:58:39;;;;;;;0.93;0.30;;;8.50;99.90;;;;;;10348001;28;20655;-49
2021/03/22 17:04:00;;;;;;;0.70;0.28;;;8.40;99.90;;;;;;10334472;28;20045;-50
2021/03/22 17:09:21;;;;;;;0.98;0.28;;;8.30;99.90;;;;;;10343642;28;20104;-48
2021/03/22 17:14:42;;;;;;;0.40;0.20;;;8.20;99.90;;;;;;10347468;28;20248;-48
2021/03/22 17:20:05;;;;;;;0.77;0.22;;;8.20;99.90;;;;;;10337429;28;20049;-48
2021/03/22 17:25:39;;;;;;;2.33;1.13;;;8.10;99.90;;;;;;10343152;28;20041;-48
2021/03/22 17:31:00;;;;;;;1.95;0.45;;;8.10;99.90;;;;;;10363159;28;20473;-48
2021/03/22 17:36:22;;;;;;;3.90;0.28;;;8.10;99.90;;;;;;10347662;28;20033;-48
2021/03/22 17:41:43;;;;;;;1.40;0.30;;;7.90;99.90;;;;;;10356430;28;20382;-48
2021/03/22 17:47:04;;;;;;;0.68;0.10;;;7.90;99.90;;;;;;10357520;28;20064;-49
2021/03/22 17:52:26;;;;;;;0.50;0.32;;;7.80;99.90;;;;;;10367644;28;20045;-49
2021/03/22 17:57:47;;;;;;;0.63;0.20;;;7.80;99.90;;;;;;10350613;28;20140;-49
2021/03/22 18:03:08;;;;;;;1.40;0.25;;;7.80;99.90;;;;;;10348927;28;20045;-49
2021/03/22 18:08:29;;;;;;;1.55;0.40;;;7.70;99.90;;;;;;10347216;28;21325;-49
2021/03/22 18:13:50;;;;;;;1.08;0.30;;;7.60;99.90;;;;;;10349497;28;20033;-49
2021/03/22 18:19:11;;;;;;;0.85;0.35;;;7.50;99.90;;;;;;10331531;28;20030;-48
2021/03/22 18:24:32;;;;;;;0.90;0.30;;;7.40;99.90;;;;;;10353319;28;20076;-48
2021/03/22 18:29:53;;;;;;;1.60;0.70;;;7.30;99.90;;;;;;10350737;28;20071;-49
2021/03/22 18:35:23;;;;;;;5.28;1.30;;;7.30;99.90;;;;;;10347233;28;20046;-49
2021/03/22 18:40:45;;;;;;;1.42;0.70;;;7.40;99.90;;;;;;10355609;28;20048;-49
2021/03/22 18:46:06;;;;;;;2.10;0.80;;;7.40;99.90;;;;;;10365332;28;20049;-48
2021/03/22 18:51:27;;;;;;;2.83;0.60;;;7.40;99.90;;;;;;10339404;28;20025;-48
2021/03/22 18:56:48;;;;;;;4.28;1.88;;;7.30;99.90;;;;;;10339465;28;20501;-48
2021/03/22 19:02:12;;;;;;;4.40;0.95;;;7.40;99.90;;;;;;10354478;28;20140;-49
2021/03/22 19:07:33;;;;;;;1.58;0.45;;;7.30;99.90;;;;;;10329706;28;20321;-48
2021/03/22 19:12:55;;;;;;;1.30;0.50;;;7.30;99.90;;;;;;10363850;28;20115;-48
2021/03/22 19:18:17;;;;;;;1.83;0.75;;;7.30;99.90;;;;;;10346584;28;20489;-48
2021/03/22 19:23:39;;;;;;;1.45;0.52;;;7.30;99.90;;;;;;10358546;28;20478;-48
2021/03/22 19:29:00;;;;;;;1.58;0.40;;;7.30;99.90;;;;;;10353697;28;20046;-48
2021/03/22 19:34:21;;;;;;;6.13;1.58;;;7.20;99.90;;;;;;10356077;28;20121;-49
2021/03/22 19:39:42;;;;;;;2.97;0.93;;;7.20;99.90;;;;;;10337228;28;20334;-49
2021/03/22 19:45:06;;;;;;;1.50;0.70;;;7.10;99.90;;;;;;10335513;28;20407;-48
2021/03/22 19:50:30;;;;;;;2.30;0.70;;;7.10;99.90;;;;;;10379603;28;20111;-49
2021/03/22 19:55:52;;;;;;;1.52;0.60;;;7.10;99.90;;;;;;10358183;28;20420;-49
2021/03/22 20:01:13;;;;;;;1.30;0.50;;;7.10;99.90;;;;;;10337046;28;20045;-49
2021/03/22 20:06:34;;;;;;;1.52;0.35;;;7.10;99.90;;;;;;10352532;28;20522;-49
2021/03/22 20:11:56;;;;;;;3.85;0.60;;;7.10;99.90;;;;;;10359547;28;20050;-49
2021/03/22 20:17:18;;;;;;;4.35;0.55;;;7.00;99.90;;;;;;10351666;28;20463;-48
2021/03/22 20:22:39;;;;;;;2.60;0.60;;;7.00;99.90;;;;;;10360229;28;20045;-48
2021/03/22 20:28:05;;;;;;;1.80;0.60;;;7.00;99.90;;;;;;10342033;28;20469;-48
2021/03/22 20:33:28;;;;;;;1.38;0.55;;;7.00;99.90;;;;;;10337224;28;20506;-48
2021/03/22 20:38:50;;;;;;;1.23;0.50;;;7.00;99.90;;;;;;10360477;28;20045;-49
2021/03/22 20:44:12;;;;;;;2.47;0.73;;;7.00;99.90;;;;;;10346918;28;20873;-48
2021/03/22 20:49:33;;;;;;;5.30;1.02;;;6.90;99.90;;;;;;10346429;28;20052;-49
2021/03/22 20:54:54;;;;;;;2.75;1.10;;;6.90;99.90;;;;;;10352700;28;20033;-48
2021/03/22 21:00:22;;;;;;;2.17;1.08;;;6.90;99.90;;;;;;10345545;28;20037;-48
2021/03/22 21:05:43;;;;;;;2.17;1.00;;;6.90;99.90;;;;;;10353064;28;20597;-48
2021/03/22 21:11:05;;;;;;;2.05;0.90;;;6.80;99.90;;;;;;10347804;28;20034;-48
2021/03/22 21:16:26;;;;;;;2.17;0.90;;;6.80;99.90;;;;;;10351875;28;20041;-48
2021/03/22 21:21:47;;;;;;;2.55;1.08;;;6.70;99.90;;;;;;10366028;28;20033;-49
2021/03/22 21:27:08;;;;;;;1.73;0.73;;;6.70;99.90;;;;;;10372581;28;20041;-48
2021/03/22 21:32:29;;;;;;;2.95;0.98;;;6.70;99.90;;;;;;10345582;28;20069;-48
2021/03/22 21:37:51;;;;;;;2.65;0.95;;;6.60;99.90;;;;;;10372565;28;20405;-49
2021/03/22 21:43:14;;;;;;;3.05;0.65;;;6.40;99.90;;;;;;10364489;28;20044;-49
2021/03/22 21:48:35;;;;;;;2.42;0.77;;;6.40;99.90;;;;;;10369675;28;20046;-49
2021/03/22 21:53:56;;;;;;;2.85;1.08;;;6.20;99.90;;;;;;10367525;28;20087;-49
2021/03/22 21:59:18;;;;;;;2.00;0.77;;;6.00;99.90;;;;;;10362258;28;20344;-48
2021/03/22 22:04:39;;;;;;;1.27;0.43;;;5.90;99.90;;;;;;10369601;28;20045;-48
2021/03/22 22:10:00;;;;;;;3.58;0.90;;;5.70;99.90;;;;;;10376632;28;20057;-49
2021/03/22 22:15:30;;;;;;;3.13;0.68;;;5.60;99.90;;;;;;10368313;28;20400;-49
2021/03/22 22:20:51;;;;;;;5.57;0.80;;;5.50;99.90;;;;;;10371453;28;20034;-48
2021/03/22 22:26:12;;;;;;;1.50;0.60;;;5.50;99.90;;;;;;10356192;28;20036;-48
2021/03/22 22:31:33;;;;;;;2.13;0.88;;;5.40;99.90;;;;;;10374744;28;20022;-48
2021/03/22 22:36:54;;;;;;;4.78;1.55;;;5.40;99.90;;;;;;10377428;28;20037;-48
2021/03/22 22:42:16;;;;;;;1.90;0.80;;;5.40;99.90;;;;;;10340950;28;20034;-48
2021/03/22 22:47:37;;;;;;;2.90;0.80;;;5.30;99.90;;;;;;10364449;28;20246;-48
2021/03/22 22:52:58;;;;;;;2.63;1.13;;;5.30;99.90;;;;;;10371427;28;20037;-48
2021/03/22 22:58:19;;;;;;;4.90;0.90;;;5.30;99.90;;;;;;10367180;28;20437;-48
2021/03/22 23:03:40;;;;;;;3.38;1.85;;;5.30;99.90;;;;;;10372261;28;20045;-48
2021/03/22 23:09:04;;;;;;;4.32;1.10;;;5.30;99.90;;;;;;10340918;28;20057;-49
2021/03/22 23:14:26;;;;;;;2.45;1.13;;;5.20;99.90;;;;;;10357686;28;20069;-48
2021/03/22 23:19:46;;;;;;;3.28;1.20;;;5.10;99.90;;;;;;10369754;28;20033;-49
2021/03/22 23:25:08;;;;;;;10.70;1.08;;;5.20;99.90;;;;;;10333522;28;20046;-49
2021/03/22 23:30:31;;;;;;;4.07;1.33;;;5.10;99.90;;;;;;10356063;28;20042;-51
2021/03/22 23:35:58;;;;;;;5.43;1.38;;;5.10;99.90;;;;;;10364770;28;20137;-48
2021/03/22 23:41:20;;;;;;;4.20;1.50;;;5.10;99.90;;;;;;10359023;28;20266;-48
2021/03/22 23:46:41;;;;;;;5.88;1.30;;;5.10;99.90;;;;;;10372000;28;20060;-51
2021/03/22 23:52:04;;;;;;;3.65;1.40;;;5.10;99.90;;;;;;10359173;28;20046;-49
2021/03/22 23:57:25;;;;;;;5.50;1.85;;;5.10;99.90;;;;;;10359989;28;20478;-48
